PWSweather.com
Personal Weather Stations
Station Observations
OBSERWACJEMETEO
Skórowo, SkorowoPL 76-230

SkórowoSkorowoPL 76-230

Lat: 54.5030556, Lon: 17.5277777

Elevation: 77

Station Type: WH2080

http://obserwacjemeteo.eu/

High Low Average
Temperature 72.1°F22.3°C 39.9°F4.4°C 61.3°F16.3°C
Dew Point 61.1°F16.2°C 32.0°F0.0°C 56.9°F13.8°C
Winds 3.8 mph 6.1 kmh Calm Calm 1.0 mph E1.6 kmh E
Wind Gusts 6.9 mph11.1 kmh -- 2.0 mph3.2 kmh
Humidity 99% 60% 87%
Pressure 30.05 in1017.6 mb 29.78 in1008.5 mb -
Precipitation 0.04 in1.0 mm - -
Hour Temp Dew Point Humidity Winds Wind Gusts Pressure Precip Precip Rate Daily Precip Total
12:00 AM 55.0°F12.8°C 54.2°F12.3°C 97% Calm Calm 1.6 mph2.6 kmh 30.04 in1017.3 mb 0.00 in0.0 mm 0.00 in0.0 mm 0.00 in0.0 mm
12:10 AM 54.7°F12.6°C 53.6°F12.0°C 96% 0.7 mph NE1.1 kmh NE 2.2 mph3.5 kmh 30.05 in1017.6 mb 0.00 in0.0 mm 0.00 in0.0 mm 0.00 in0.0 mm
12:20 AM 54.5°F12.5°C 53.4°F11.9°C 96% Calm Calm 2.2 mph3.5 kmh 30.04 in1017.3 mb 0.00 in0.0 mm 0.00 in0.0 mm 0.00 in0.0 mm
12:30 AM 54.3°F12.4°C 54.1°F12.3°C 99% 0.7 mph NE1.1 kmh NE 1.6 mph2.6 kmh 30.04 in1017.3 mb 0.00 in0.0 mm 0.00 in0.0 mm 0.00 in0.0 mm
12:40 AM 54.3°F12.4°C 54.1°F12.3°C 99% 0.7 mph NE1.1 kmh NE 1.6 mph2.6 kmh 30.04 in1017.3 mb 0.00 in0.0 mm 0.00 in0.0 mm 0.00 in0.0 mm
12:50 AM 54.1°F12.3°C 53.9°F12.2°C 99% 0.7 mph NE1.1 kmh NE 1.6 mph2.6 kmh 30.04 in1017.3 mb 0.00 in0.0 mm 0.00 in0.0 mm 0.00 in0.0 mm
01:00 AM 54.0°F12.2°C 53.7°F12.1°C 99% Calm Calm 1.6 mph2.6 kmh 30.04 in1017.3 mb 0.00 in0.0 mm 0.00 in0.0 mm 0.00 in0.0 mm
01:10 AM 53.8°F12.1°C 53.5°F11.9°C 99% 0.7 mph NE1.1 kmh NE 2.2 mph3.5 kmh 30.04 in1017.3 mb 0.00 in0.0 mm 0.00 in0.0 mm 0.00 in0.0 mm
01:20 AM 53.8°F12.1°C 53.5°F11.9°C 99% 0.7 mph NE1.1 kmh NE 1.6 mph2.6 kmh 30.04 in1017.3 mb 0.00 in0.0 mm 0.00 in0.0 mm 0.00 in0.0 mm
01:30 AM 53.6°F12.0°C 53.3°F11.8°C 99% Calm Calm 1.6 mph2.6 kmh 30.03 in1016.9 mb 0.00 in0.0 mm 0.00 in0.0 mm 0.00 in0.0 mm
01:40 AM 53.8°F12.1°C 53.5°F11.9°C 99% Calm Calm 1.6 mph2.6 kmh 30.03 in1016.9 mb 0.00 in0.0 mm 0.00 in0.0 mm 0.00 in0.0 mm
01:50 AM 53.8°F12.1°C 53.5°F11.9°C 99% Calm Calm 0.7 mph1.1 kmh 30.03 in1016.9 mb 0.00 in0.0 mm 0.00 in0.0 mm 0.00 in0.0 mm
02:00 AM 53.6°F12.0°C 53.3°F11.8°C 99% Calm Calm 0.7 mph1.1 kmh 30.03 in1016.9 mb 0.00 in0.0 mm 0.00 in0.0 mm 0.00 in0.0 mm
02:10 AM 53.4°F11.9°C 53.2°F11.8°C 99% Calm Calm 0.7 mph1.1 kmh 30.03 in1016.9 mb 0.00 in0.0 mm 0.00 in0.0 mm 0.00 in0.0 mm
02:20 AM 53.2°F11.8°C 53.0°F11.7°C 99% Calm Calm 0.7 mph1.1 kmh 30.02 in1016.6 mb 0.00 in0.0 mm 0.00 in0.0 mm 0.00 in0.0 mm
02:40 AM 53.6°F12.0°C 53.3°F11.8°C 99% Calm Calm 2.2 mph3.5 kmh 30.01 in1016.3 mb 0.00 in0.0 mm 0.00 in0.0 mm 0.00 in0.0 mm
02:50 AM 53.8°F12.1°C 53.5°F11.9°C 99% 0.7 mph NW1.1 kmh NW 1.6 mph2.6 kmh 30.01 in1016.3 mb 0.00 in0.0 mm 0.00 in0.0 mm 0.00 in0.0 mm
03:00 AM 54.0°F12.2°C 53.7°F12.1°C 99% Calm Calm 2.2 mph3.5 kmh 30.00 in1015.9 mb 0.00 in0.0 mm 0.00 in0.0 mm 0.00 in0.0 mm
03:10 AM 54.0°F12.2°C 53.7°F12.1°C 99% Calm Calm 1.6 mph2.6 kmh 30.00 in1015.9 mb 0.00 in0.0 mm 0.00 in0.0 mm 0.00 in0.0 mm
03:20 AM 54.0°F12.2°C 53.7°F12.1°C 99% Calm Calm 0.7 mph1.1 kmh 30.01 in1016.3 mb 0.00 in0.0 mm 0.00 in0.0 mm 0.00 in0.0 mm
03:30 AM 54.0°F12.2°C 53.7°F12.1°C 99% 0.7 mph NE1.1 kmh NE 1.6 mph2.6 kmh 30.02 in1016.6 mb 0.00 in0.0 mm 0.00 in0.0 mm 0.00 in0.0 mm
03:40 AM 54.1°F12.3°C 53.9°F12.2°C 99% 0.7 mph N1.1 kmh N 1.6 mph2.6 kmh 30.02 in1016.6 mb 0.00 in0.0 mm 0.00 in0.0 mm 0.00 in0.0 mm
03:50 AM 54.1°F12.3°C 53.9°F12.2°C 99% Calm Calm 2.2 mph3.5 kmh 30.03 in1016.9 mb 0.00 in0.0 mm 0.00 in0.0 mm 0.00 in0.0 mm
04:00 AM 54.0°F12.2°C 53.7°F12.1°C 99% 2.2 mph NE3.5 kmh NE 3.8 mph6.1 kmh 30.04 in1017.3 mb 0.00 in0.0 mm 0.00 in0.0 mm 0.00 in0.0 mm
04:10 AM 54.0°F12.2°C 53.7°F12.1°C 99% 2.2 mph NNE3.5 kmh NNE 3.1 mph5.0 kmh 30.04 in1017.3 mb 0.00 in0.0 mm 0.00 in0.0 mm 0.00 in0.0 mm
04:20 AM 54.0°F12.2°C 53.7°F12.1°C 99% 1.6 mph NNE2.6 kmh NNE 3.1 mph5.0 kmh 30.03 in1016.9 mb 0.00 in0.0 mm 0.00 in0.0 mm 0.00 in0.0 mm
04:30 AM 53.8°F12.1°C 53.5°F11.9°C 99% Calm Calm 3.1 mph5.0 kmh 30.03 in1016.9 mb 0.00 in0.0 mm 0.00 in0.0 mm 0.00 in0.0 mm
04:40 AM 53.6°F12.0°C 53.3°F11.8°C 99% Calm Calm 1.6 mph2.6 kmh 30.03 in1016.9 mb 0.00 in0.0 mm 0.00 in0.0 mm 0.00 in0.0 mm
04:50 AM 53.2°F11.8°C 53.0°F11.7°C 99% Calm Calm 1.6 mph2.6 kmh 30.02 in1016.6 mb 0.00 in0.0 mm 0.00 in0.0 mm 0.00 in0.0 mm
05:00 AM 53.1°F11.7°C 52.8°F11.6°C 99% Calm Calm 2.2 mph3.5 kmh 30.02 in1016.6 mb 0.00 in0.0 mm 0.00 in0.0 mm 0.00 in0.0 mm
05:10 AM 52.9°F11.6°C 52.6°F11.4°C 99% Calm Calm 0.7 mph1.1 kmh 30.02 in1016.6 mb 0.00 in0.0 mm 0.00 in0.0 mm 0.00 in0.0 mm
05:20 AM 52.2°F11.2°C 51.6°F10.9°C 98% Calm Calm -- 30.02 in1016.6 mb 0.00 in0.0 mm 0.00 in0.0 mm 0.00 in0.0 mm
05:30 AM 51.6°F10.9°C 51.1°F10.6°C 98% Calm Calm -- 30.02 in1016.6 mb 0.00 in0.0 mm 0.00 in0.0 mm 0.00 in0.0 mm
05:40 AM 52.0°F11.1°C 51.4°F10.8°C 98% Calm Calm -- 30.02 in1016.6 mb 0.00 in0.0 mm 0.00 in0.0 mm 0.00 in0.0 mm
05:50 AM 52.2°F11.2°C 51.6°F10.9°C 98% Calm Calm -- 30.02 in1016.6 mb 0.00 in0.0 mm 0.00 in0.0 mm 0.00 in0.0 mm
06:00 AM 52.3°F11.3°C 51.8°F11.0°C 98% Calm Calm -- 30.01 in1016.3 mb 0.00 in0.0 mm 0.00 in0.0 mm 0.00 in0.0 mm
06:10 AM 52.7°F11.5°C 52.4°F11.3°C 99% Calm Calm -- 30.01 in1016.3 mb 0.00 in0.0 mm 0.00 in0.0 mm 0.00 in0.0 mm
06:20 AM 52.9°F11.6°C 52.6°F11.4°C 99% Calm Calm -- 30.01 in1016.3 mb 0.00 in0.0 mm 0.00 in0.0 mm 0.00 in0.0 mm
06:30 AM 53.4°F11.9°C 53.2°F11.8°C 99% Calm Calm -- 30.01 in1016.3 mb 0.00 in0.0 mm 0.00 in0.0 mm 0.00 in0.0 mm
06:40 AM 54.3°F12.4°C 54.1°F12.3°C 99% Calm Calm 1.6 mph2.6 kmh 30.00 in1015.9 mb 0.00 in0.0 mm 0.00 in0.0 mm 0.00 in0.0 mm
06:50 AM 54.7°F12.6°C 53.9°F12.2°C 97% 0.7 mph SW1.1 kmh SW 2.2 mph3.5 kmh 30.00 in1015.9 mb 0.00 in0.0 mm 0.00 in0.0 mm 0.00 in0.0 mm
07:00 AM 55.4°F13.0°C 54.9°F12.7°C 98% Calm Calm 1.6 mph2.6 kmh 29.99 in1015.6 mb 0.00 in0.0 mm 0.00 in0.0 mm 0.00 in0.0 mm
07:10 AM 56.5°F13.6°C 55.9°F13.3°C 98% Calm Calm 1.6 mph2.6 kmh 29.99 in1015.6 mb 0.00 in0.0 mm 0.00 in0.0 mm 0.00 in0.0 mm
07:20 AM 57.7°F14.3°C 56.9°F13.8°C 97% Calm Calm 2.2 mph3.5 kmh 29.98 in1015.2 mb 0.00 in0.0 mm 0.00 in0.0 mm 0.00 in0.0 mm
07:30 AM 57.7°F14.3°C 56.3°F13.5°C 95% Calm Calm 1.6 mph2.6 kmh 29.99 in1015.6 mb 0.00 in0.0 mm 0.00 in0.0 mm 0.00 in0.0 mm
07:40 AM 58.1°F14.5°C 55.8°F13.2°C 92% Calm Calm 0.7 mph1.1 kmh 29.98 in1015.2 mb 0.00 in0.0 mm 0.00 in0.0 mm 0.00 in0.0 mm
07:50 AM 57.9°F14.4°C 55.3°F12.9°C 91% Calm Calm 0.7 mph1.1 kmh 29.98 in1015.2 mb 0.00 in0.0 mm 0.00 in0.0 mm 0.00 in0.0 mm
08:00 AM 57.9°F14.4°C 55.0°F12.8°C 90% Calm Calm 0.7 mph1.1 kmh 29.98 in1015.2 mb 0.00 in0.0 mm 0.00 in0.0 mm 0.00 in0.0 mm
08:10 AM 58.5°F14.7°C 55.5°F13.1°C 90% 0.7 mph W1.1 kmh W 3.1 mph5.0 kmh 29.98 in1015.2 mb 0.00 in0.0 mm 0.00 in0.0 mm 0.00 in0.0 mm
08:20 AM 62.2°F16.8°C 59.3°F15.2°C 90% 0.7 mph WSW1.1 kmh WSW 1.6 mph2.6 kmh 29.97 in1014.9 mb 0.00 in0.0 mm 0.00 in0.0 mm 0.00 in0.0 mm
08:30 AM 64.6°F18.1°C 57.9°F14.4°C 79% Calm Calm 1.6 mph2.6 kmh 29.97 in1014.9 mb 0.00 in0.0 mm 0.00 in0.0 mm 0.00 in0.0 mm
08:40 AM 66.6°F19.2°C 57.3°F14.1°C 72% Calm Calm 3.1 mph5.0 kmh 29.97 in1014.9 mb 0.00 in0.0 mm 0.00 in0.0 mm 0.00 in0.0 mm
08:50 AM 67.3°F19.6°C 56.4°F13.6°C 68% 1.6 mph WSW2.6 kmh WSW 2.2 mph3.5 kmh 29.97 in1014.9 mb 0.00 in0.0 mm 0.00 in0.0 mm 0.00 in0.0 mm
09:00 AM 67.3°F19.6°C 56.4°F13.6°C 68% 1.6 mph W2.6 kmh W 3.1 mph5.0 kmh 29.96 in1014.6 mb 0.00 in0.0 mm 0.00 in0.0 mm 0.00 in0.0 mm
09:10 AM 67.1°F19.5°C 56.2°F13.4°C 68% Calm Calm 1.6 mph2.6 kmh 29.95 in1014.2 mb 0.00 in0.0 mm 0.00 in0.0 mm 0.00 in0.0 mm
09:20 AM 68.4°F20.2°C 57.0°F13.9°C 67% 0.7 mph SW1.1 kmh SW 3.1 mph5.0 kmh 29.96 in1014.6 mb 0.00 in0.0 mm 0.00 in0.0 mm 0.00 in0.0 mm
09:30 AM 70.3°F21.3°C 58.5°F14.7°C 66% 0.7 mph W1.1 kmh W 2.2 mph3.5 kmh 29.95 in1014.2 mb 0.00 in0.0 mm 0.00 in0.0 mm 0.00 in0.0 mm
09:40 AM 71.2°F21.8°C 58.0°F14.4°C 63% 0.7 mph SW1.1 kmh SW 3.1 mph5.0 kmh 29.94 in1013.9 mb 0.00 in0.0 mm 0.00 in0.0 mm 0.00 in0.0 mm
09:50 AM 70.7°F21.5°C 57.1°F13.9°C 62% 3.1 mph SW5.0 kmh SW 4.5 mph7.2 kmh 29.94 in1013.9 mb 0.00 in0.0 mm 0.00 in0.0 mm 0.00 in0.0 mm
10:00 AM 71.2°F21.8°C 58.0°F14.4°C 63% 0.7 mph WSW1.1 kmh WSW 4.5 mph7.2 kmh 29.93 in1013.5 mb 0.00 in0.0 mm 0.00 in0.0 mm 0.00 in0.0 mm
10:10 AM 70.2°F21.2°C 57.0°F13.9°C 63% 0.7 mph W1.1 kmh W 6.9 mph11.1 kmh 29.92 in1013.2 mb 0.00 in0.0 mm 0.00 in0.0 mm 0.00 in0.0 mm
10:20 AM 71.8°F22.1°C 57.2°F14.0°C 60% 1.6 mph WSW2.6 kmh WSW 4.5 mph7.2 kmh 29.92 in1013.2 mb 0.00 in0.0 mm 0.00 in0.0 mm 0.00 in0.0 mm
10:30 AM 72.1°F22.3°C 57.5°F14.2°C 60% 2.2 mph SW3.5 kmh SW 4.5 mph7.2 kmh 29.92 in1013.2 mb 0.00 in0.0 mm 0.00 in0.0 mm 0.00 in0.0 mm
10:40 AM 70.2°F21.2°C 55.7°F13.2°C 60% 2.2 mph SW3.5 kmh SW 4.5 mph7.2 kmh 29.91 in1012.9 mb 0.00 in0.0 mm 0.00 in0.0 mm 0.00 in0.0 mm
10:50 AM 70.3°F21.3°C 57.2°F14.0°C 63% 0.7 mph W1.1 kmh W 4.5 mph7.2 kmh 29.90 in1012.5 mb 0.00 in0.0 mm 0.00 in0.0 mm 0.00 in0.0 mm
11:00 AM 71.2°F21.8°C 56.7°F13.7°C 60% 2.2 mph SW3.5 kmh SW 6.0 mph9.7 kmh 29.90 in1012.5 mb 0.00 in0.0 mm 0.00 in0.0 mm 0.00 in0.0 mm
11:10 AM 70.2°F21.2°C 57.4°F14.1°C 64% 0.7 mph W1.1 kmh W 4.5 mph7.2 kmh 29.90 in1012.5 mb 0.00 in0.0 mm 0.00 in0.0 mm 0.00 in0.0 mm
11:20 AM 70.5°F21.4°C 57.3°F14.1°C 63% 0.7 mph SW1.1 kmh SW 3.1 mph5.0 kmh 29.90 in1012.5 mb 0.00 in0.0 mm 0.00 in0.0 mm 0.00 in0.0 mm
11:21 AM 39.9°F4.4°C 32.0°F0.0°C 73% 3.1 mph SE5.0 kmh SE 3.8 mph6.1 kmh 29.97 in1014.9 mb 0.00 in0.0 mm 0.00 in0.0 mm 0.00 in0.0 mm
11:40 AM 66.2°F19.0°C 56.1°F13.4°C 70% 0.7 mph W1.1 kmh W 3.1 mph5.0 kmh 29.90 in1012.5 mb 0.00 in0.0 mm 0.00 in0.0 mm 0.00 in0.0 mm
11:50 AM 66.0°F18.9°C 57.1°F13.9°C 73% Calm Calm 1.6 mph2.6 kmh 29.90 in1012.5 mb 0.00 in0.0 mm 0.00 in0.0 mm 0.00 in0.0 mm
12:00 PM 66.0°F18.9°C 56.4°F13.6°C 71% 1.6 mph SW2.6 kmh SW 3.1 mph5.0 kmh 29.90 in1012.5 mb 0.00 in0.0 mm 0.00 in0.0 mm 0.00 in0.0 mm
12:10 PM 65.8°F18.8°C 56.6°F13.7°C 72% 1.6 mph WSW2.6 kmh WSW 3.1 mph5.0 kmh 29.91 in1012.9 mb 0.00 in0.0 mm 0.00 in0.0 mm 0.00 in0.0 mm
12:20 PM 65.1°F18.4°C 57.0°F13.9°C 75% 2.2 mph WSW3.5 kmh WSW 3.8 mph6.1 kmh 29.91 in1012.9 mb 0.00 in0.0 mm 0.00 in0.0 mm 0.00 in0.0 mm
12:30 PM 64.8°F18.2°C 57.0°F13.9°C 76% 1.6 mph SW2.6 kmh SW 3.1 mph5.0 kmh 29.90 in1012.5 mb 0.00 in0.0 mm 0.00 in0.0 mm 0.00 in0.0 mm
12:40 PM 64.4°F18.0°C 57.1°F13.9°C 77% 2.2 mph SW3.5 kmh SW 3.8 mph6.1 kmh 29.89 in1012.2 mb 0.01 in0.3 mm 0.06 in1.5 mm 0.01 in0.3 mm
12:50 PM 64.2°F17.9°C 57.2°F14.0°C 78% 1.6 mph WNW2.6 kmh WNW 3.8 mph6.1 kmh 29.88 in1011.9 mb 0.01 in0.3 mm 0.00 in0.0 mm 0.01 in0.3 mm
01:00 PM 64.4°F18.0°C 58.1°F14.5°C 80% 1.6 mph SW2.6 kmh SW 3.8 mph6.1 kmh 29.88 in1011.9 mb 0.01 in0.3 mm 0.00 in0.0 mm 0.01 in0.3 mm
01:10 PM 64.6°F18.1°C 58.3°F14.6°C 80% Calm Calm 2.2 mph3.5 kmh 29.87 in1011.5 mb 0.01 in0.3 mm 0.00 in0.0 mm 0.01 in0.3 mm
01:20 PM 66.7°F19.3°C 60.7°F15.9°C 81% 1.6 mph W2.6 kmh W 3.8 mph6.1 kmh 29.87 in1011.5 mb 0.01 in0.3 mm 0.00 in0.0 mm 0.01 in0.3 mm
01:30 PM 68.4°F20.2°C 59.8°F15.4°C 74% 0.7 mph WSW1.1 kmh WSW 4.5 mph7.2 kmh 29.88 in1011.9 mb 0.01 in0.3 mm 0.00 in0.0 mm 0.01 in0.3 mm
01:40 PM 69.3°F20.7°C 59.9°F15.5°C 72% 2.2 mph WSW3.5 kmh WSW 3.8 mph6.1 kmh 29.88 in1011.9 mb 0.01 in0.3 mm 0.00 in0.0 mm 0.01 in0.3 mm
01:50 PM 69.4°F20.8°C 59.7°F15.4°C 71% 0.7 mph SW1.1 kmh SW 3.8 mph6.1 kmh 29.87 in1011.5 mb 0.00 in0.0 mm 0.00 in0.0 mm 0.01 in0.3 mm
02:00 PM 70.0°F21.1°C 59.8°F15.4°C 70% 1.6 mph SW2.6 kmh SW 3.8 mph6.1 kmh 29.87 in1011.5 mb 0.00 in0.0 mm 0.00 in0.0 mm 0.01 in0.3 mm
02:10 PM 70.7°F21.5°C 59.6°F15.3°C 68% 3.1 mph SW5.0 kmh SW 4.5 mph7.2 kmh 29.86 in1011.2 mb 0.00 in0.0 mm 0.00 in0.0 mm 0.01 in0.3 mm
02:20 PM 69.1°F20.6°C 58.9°F14.9°C 70% 1.6 mph SW2.6 kmh SW 4.5 mph7.2 kmh 29.85 in1010.8 mb 0.00 in0.0 mm 0.00 in0.0 mm 0.01 in0.3 mm
02:30 PM 68.4°F20.2°C 58.6°F14.8°C 71% 1.6 mph SW2.6 kmh SW 4.5 mph7.2 kmh 29.86 in1011.2 mb 0.00 in0.0 mm 0.00 in0.0 mm 0.01 in0.3 mm
02:40 PM 67.8°F19.9°C 58.5°F14.7°C 72% Calm Calm 2.2 mph3.5 kmh 29.86 in1011.2 mb 0.00 in0.0 mm 0.00 in0.0 mm 0.01 in0.3 mm
02:50 PM 67.6°F19.8°C 58.3°F14.6°C 72% 0.7 mph WSW1.1 kmh WSW 5.4 mph8.7 kmh 29.87 in1011.5 mb 0.00 in0.0 mm 0.00 in0.0 mm 0.01 in0.3 mm
03:00 PM 67.6°F19.8°C 58.3°F14.6°C 72% 3.8 mph SW6.1 kmh SW 6.0 mph9.7 kmh 29.86 in1011.2 mb 0.00 in0.0 mm 0.00 in0.0 mm 0.01 in0.3 mm
03:10 PM 68.0°F20.0°C 58.7°F14.8°C 72% 0.7 mph NNE1.1 kmh NNE 3.1 mph5.0 kmh 29.87 in1011.5 mb 0.00 in0.0 mm 0.00 in0.0 mm 0.01 in0.3 mm
03:20 PM 68.9°F20.5°C 59.1°F15.1°C 71% 2.2 mph WSW3.5 kmh WSW 3.8 mph6.1 kmh 29.87 in1011.5 mb 0.00 in0.0 mm 0.00 in0.0 mm 0.01 in0.3 mm
03:30 PM 70.3°F21.3°C 60.1°F15.6°C 70% 2.2 mph NW3.5 kmh NW 3.8 mph6.1 kmh 29.86 in1011.2 mb 0.00 in0.0 mm 0.00 in0.0 mm 0.01 in0.3 mm
03:40 PM 70.2°F21.2°C 58.7°F14.8°C 67% 3.1 mph SW5.0 kmh SW 4.5 mph7.2 kmh 29.87 in1011.5 mb 0.00 in0.0 mm 0.00 in0.0 mm 0.01 in0.3 mm
03:50 PM 69.6°F20.9°C 59.4°F15.2°C 70% 2.2 mph WSW3.5 kmh WSW 5.4 mph8.7 kmh 29.86 in1011.2 mb 0.00 in0.0 mm 0.00 in0.0 mm 0.01 in0.3 mm
04:00 PM 68.9°F20.5°C 58.7°F14.8°C 70% 1.6 mph SW2.6 kmh SW 3.8 mph6.1 kmh 29.86 in1011.2 mb 0.00 in0.0 mm 0.00 in0.0 mm 0.01 in0.3 mm
04:10 PM 68.4°F20.2°C 58.6°F14.8°C 71% 2.2 mph SW3.5 kmh SW 3.8 mph6.1 kmh 29.86 in1011.2 mb 0.00 in0.0 mm 0.00 in0.0 mm 0.01 in0.3 mm
04:20 PM 68.0°F20.0°C 58.3°F14.6°C 71% 0.7 mph SW1.1 kmh SW 3.8 mph6.1 kmh 29.87 in1011.5 mb 0.00 in0.0 mm 0.00 in0.0 mm 0.01 in0.3 mm
04:30 PM 68.0°F20.0°C 59.0°F15.0°C 73% 0.7 mph WSW1.1 kmh WSW 2.2 mph3.5 kmh 29.87 in1011.5 mb 0.00 in0.0 mm 0.00 in0.0 mm 0.01 in0.3 mm
04:40 PM 68.0°F20.0°C 59.4°F15.2°C 74% Calm Calm 2.2 mph3.5 kmh 29.86 in1011.2 mb 0.00 in0.0 mm 0.00 in0.0 mm 0.01 in0.3 mm
04:50 PM 67.5°F19.7°C 58.9°F14.9°C 74% Calm Calm 3.1 mph5.0 kmh 29.86 in1011.2 mb 0.00 in0.0 mm 0.00 in0.0 mm 0.01 in0.3 mm
05:00 PM 66.9°F19.4°C 58.8°F14.9°C 75% Calm Calm 1.6 mph2.6 kmh 29.86 in1011.2 mb 0.00 in0.0 mm 0.00 in0.0 mm 0.01 in0.3 mm
05:10 PM 66.0°F18.9°C 58.6°F14.8°C 77% Calm Calm -- 29.86 in1011.2 mb 0.00 in0.0 mm 0.00 in0.0 mm 0.02 in0.5 mm
05:20 PM 65.3°F18.5°C 59.0°F15.0°C 80% Calm Calm 0.7 mph1.1 kmh 29.85 in1010.8 mb 0.00 in0.0 mm 0.00 in0.0 mm 0.02 in0.5 mm
05:30 PM 64.9°F18.3°C 59.3°F15.2°C 82% Calm Calm 0.7 mph1.1 kmh 29.85 in1010.8 mb 0.00 in0.0 mm 0.00 in0.0 mm 0.02 in0.5 mm
05:40 PM 64.6°F18.1°C 59.3°F15.2°C 83% Calm Calm -- 29.84 in1010.5 mb 0.00 in0.0 mm 0.00 in0.0 mm 0.02 in0.5 mm
05:50 PM 63.9°F17.7°C 59.0°F15.0°C 84% Calm Calm 0.7 mph1.1 kmh 29.84 in1010.5 mb 0.00 in0.0 mm 0.00 in0.0 mm 0.02 in0.5 mm
06:00 PM 63.5°F17.5°C 58.6°F14.8°C 84% Calm Calm -- 29.84 in1010.5 mb 0.00 in0.0 mm 0.00 in0.0 mm 0.02 in0.5 mm
06:10 PM 63.0°F17.2°C 59.4°F15.2°C 88% Calm Calm 1.6 mph2.6 kmh 29.84 in1010.5 mb 0.00 in0.0 mm 0.00 in0.0 mm 0.02 in0.5 mm
06:20 PM 62.4°F16.9°C 59.2°F15.1°C 89% Calm Calm 0.7 mph1.1 kmh 29.84 in1010.5 mb 0.00 in0.0 mm 0.00 in0.0 mm 0.02 in0.5 mm
06:30 PM 62.1°F16.7°C 59.1°F15.1°C 90% Calm Calm 0.7 mph1.1 kmh 29.83 in1010.2 mb 0.00 in0.0 mm 0.00 in0.0 mm 0.02 in0.5 mm
06:40 PM 61.7°F16.5°C 59.1°F15.1°C 91% 0.7 mph WSW1.1 kmh WSW 1.6 mph2.6 kmh 29.84 in1010.5 mb 0.00 in0.0 mm 0.00 in0.0 mm 0.02 in0.5 mm
06:50 PM 61.5°F16.4°C 59.2°F15.1°C 92% Calm Calm 0.7 mph1.1 kmh 29.84 in1010.5 mb 0.00 in0.0 mm 0.00 in0.0 mm 0.02 in0.5 mm
07:00 PM 61.3°F16.3°C 59.0°F15.0°C 92% Calm Calm 1.6 mph2.6 kmh 29.84 in1010.5 mb 0.00 in0.0 mm 0.00 in0.0 mm 0.02 in0.5 mm
07:10 PM 61.3°F16.3°C 59.3°F15.2°C 93% Calm Calm 0.7 mph1.1 kmh 29.83 in1010.2 mb 0.00 in0.0 mm 0.00 in0.0 mm 0.02 in0.5 mm
07:20 PM 61.3°F16.3°C 59.6°F15.3°C 94% Calm Calm 0.7 mph1.1 kmh 29.83 in1010.2 mb 0.00 in0.0 mm 0.00 in0.0 mm 0.02 in0.5 mm
07:30 PM 61.2°F16.2°C 59.4°F15.2°C 94% Calm Calm 0.7 mph1.1 kmh 29.84 in1010.5 mb 0.00 in0.0 mm 0.00 in0.0 mm 0.02 in0.5 mm
07:40 PM 61.3°F16.3°C 59.9°F15.5°C 95% 0.7 mph ENE1.1 kmh ENE 1.6 mph2.6 kmh 29.83 in1010.2 mb 0.00 in0.0 mm 0.00 in0.0 mm 0.02 in0.5 mm
07:50 PM 61.3°F16.3°C 59.9°F15.5°C 95% 0.7 mph NW1.1 kmh NW 1.6 mph2.6 kmh 29.83 in1010.2 mb 0.00 in0.0 mm 0.00 in0.0 mm 0.02 in0.5 mm
08:00 PM 61.5°F16.4°C 60.4°F15.8°C 96% Calm Calm 3.1 mph5.0 kmh 29.83 in1010.2 mb 0.01 in0.3 mm 0.01 in0.3 mm 0.03 in0.8 mm
08:10 PM 61.5°F16.4°C 60.4°F15.8°C 96% Calm Calm 3.1 mph5.0 kmh 29.83 in1010.2 mb 0.02 in0.5 mm 0.06 in1.5 mm 0.04 in1.0 mm
08:20 PM 61.5°F16.4°C 60.7°F15.9°C 97% 0.7 mph W1.1 kmh W 1.6 mph2.6 kmh 29.83 in1010.2 mb 0.02 in0.5 mm 0.00 in0.0 mm 0.04 in1.0 mm
08:30 PM 61.3°F16.3°C 60.5°F15.8°C 97% Calm Calm 1.6 mph2.6 kmh 29.83 in1010.2 mb 0.02 in0.5 mm 0.00 in0.0 mm 0.04 in1.0 mm
08:40 PM 61.5°F16.4°C 60.7°F15.9°C 97% 1.6 mph W2.6 kmh W 2.2 mph3.5 kmh 29.83 in1010.2 mb 0.02 in0.5 mm 0.00 in0.0 mm 0.04 in1.0 mm
08:50 PM 61.3°F16.3°C 60.8°F16.0°C 98% Calm Calm 0.7 mph1.1 kmh 29.81 in1009.5 mb 0.02 in0.5 mm 0.00 in0.0 mm 0.04 in1.0 mm
09:00 PM 61.3°F16.3°C 60.8°F16.0°C 98% Calm Calm 0.7 mph1.1 kmh 29.81 in1009.5 mb 0.01 in0.3 mm 0.00 in0.0 mm 0.04 in1.0 mm
09:10 PM 61.0°F16.1°C 60.4°F15.8°C 98% Calm Calm -- 29.80 in1009.1 mb 0.00 in0.0 mm 0.00 in0.0 mm 0.04 in1.0 mm
09:20 PM 60.8°F16.0°C 60.2°F15.7°C 98% Calm Calm -- 29.80 in1009.1 mb 0.00 in0.0 mm 0.00 in0.0 mm 0.04 in1.0 mm
09:30 PM 60.8°F16.0°C 60.2°F15.7°C 98% Calm Calm -- 29.80 in1009.1 mb 0.00 in0.0 mm 0.00 in0.0 mm 0.04 in1.0 mm
09:40 PM 60.6°F15.9°C 60.1°F15.6°C 98% Calm Calm -- 29.80 in1009.1 mb 0.00 in0.0 mm 0.00 in0.0 mm 0.04 in1.0 mm
09:50 PM 60.8°F16.0°C 60.5°F15.8°C 99% Calm Calm -- 29.80 in1009.1 mb 0.00 in0.0 mm 0.00 in0.0 mm 0.04 in1.0 mm
10:00 PM 61.0°F16.1°C 60.7°F15.9°C 99% Calm Calm 0.7 mph1.1 kmh 29.80 in1009.1 mb 0.00 in0.0 mm 0.00 in0.0 mm 0.04 in1.0 mm
10:10 PM 61.0°F16.1°C 60.7°F15.9°C 99% Calm Calm -- 29.80 in1009.1 mb 0.00 in0.0 mm 0.00 in0.0 mm 0.04 in1.0 mm
10:20 PM 60.8°F16.0°C 60.5°F15.8°C 99% Calm Calm -- 29.79 in1008.8 mb 0.00 in0.0 mm 0.00 in0.0 mm 0.04 in1.0 mm
10:30 PM 60.6°F15.9°C 60.4°F15.8°C 99% Calm Calm -- 29.79 in1008.8 mb 0.00 in0.0 mm 0.00 in0.0 mm 0.04 in1.0 mm
10:40 PM 60.8°F16.0°C 60.5°F15.8°C 99% Calm Calm 0.7 mph1.1 kmh 29.78 in1008.5 mb 0.00 in0.0 mm 0.00 in0.0 mm 0.04 in1.0 mm
10:50 PM 60.8°F16.0°C 60.5°F15.8°C 99% Calm Calm 0.7 mph1.1 kmh 29.78 in1008.5 mb 0.00 in0.0 mm 0.00 in0.0 mm 0.04 in1.0 mm
11:00 PM 60.6°F15.9°C 60.4°F15.8°C 99% Calm Calm 0.7 mph1.1 kmh 29.80 in1009.1 mb 0.00 in0.0 mm 0.00 in0.0 mm 0.03 in0.8 mm
11:10 PM 60.6°F15.9°C 60.4°F15.8°C 99% Calm Calm 1.6 mph2.6 kmh 29.79 in1008.8 mb 0.00 in0.0 mm 0.00 in0.0 mm 0.03 in0.8 mm
11:20 PM 60.8°F16.0°C 60.5°F15.8°C 99% Calm Calm 2.2 mph3.5 kmh 29.79 in1008.8 mb 0.00 in0.0 mm 0.00 in0.0 mm 0.03 in0.8 mm
11:30 PM 61.2°F16.2°C 60.9°F16.1°C 99% 0.7 mph N1.1 kmh N 2.2 mph3.5 kmh 29.79 in1008.8 mb 0.00 in0.0 mm 0.00 in0.0 mm 0.03 in0.8 mm
11:40 PM 61.3°F16.3°C 61.1°F16.2°C 99% 0.7 mph NE1.1 kmh NE 3.1 mph5.0 kmh 29.80 in1009.1 mb 0.00 in0.0 mm 0.00 in0.0 mm 0.03 in0.8 mm
11:50 PM 61.3°F16.3°C 61.1°F16.2°C 99% 0.7 mph NNE1.1 kmh NNE 1.6 mph2.6 kmh 29.79 in1008.8 mb 0.00 in0.0 mm 0.00 in0.0 mm 0.03 in0.8 mm